Time;durP1;ratioP1;P1;durP2;ratioP2;P2;SDS_P1;SDS_P2;PMS_P1;PMS_P2;Temp;Humidity;BMP_temperature;BMP_pressure;BME280_temperature;BME280_humidity;BME280_pressure;Samples;Min_cycle;Max_cycle;Signal;HPM_P1;HPM_P2
2022/06/08 00:00:13;;;;;;;16.47;15.37;;;15.10;99.90;;;;;;5091386;28;20490;-72
2022/06/08 00:02:43;;;;;;;17.73;16.33;;;15.10;99.90;;;;;;5091411;28;20463;-72
2022/06/08 00:05:11;;;;;;;18.00;16.70;;;15.10;99.90;;;;;;5091400;28;20450;-72
2022/06/08 00:07:38;;;;;;;19.37;17.70;;;15.00;99.90;;;;;;5091392;28;20974;-73
2022/06/08 00:10:06;;;;;;;17.67;16.57;;;14.90;99.90;;;;;;5091435;28;20641;-73
2022/06/08 00:12:32;;;;;;;17.20;16.00;;;14.80;99.90;;;;;;5091474;28;20955;-73
2022/06/08 00:14:59;;;;;;;17.60;16.40;;;14.90;99.90;;;;;;5091307;28;20944;-74
2022/06/08 00:17:26;;;;;;;18.73;17.30;;;14.90;99.90;;;;;;5091223;28;20446;-74
2022/06/08 00:19:54;;;;;;;17.27;16.10;;;14.90;99.90;;;;;;5091251;28;20543;-73
2022/06/08 00:22:21;;;;;;;17.00;16.00;;;15.00;99.90;;;;;;5091300;28;20482;-73
2022/06/08 00:24:48;;;;;;;17.13;16.00;;;15.10;99.90;;;;;;5091551;28;20846;-74
2022/06/08 00:27:14;;;;;;;17.53;16.10;;;15.10;99.90;;;;;;5091179;28;20459;-75
2022/06/08 00:29:41;;;;;;;18.13;17.13;;;15.10;99.90;;;;;;5091186;28;20466;-74
2022/06/08 00:32:09;;;;;;;17.57;16.27;;;15.10;99.90;;;;;;5090778;28;20812;-74
2022/06/08 00:34:36;;;;;;;15.87;14.60;;;15.20;99.90;;;;;;5091268;28;20458;-75
2022/06/08 00:37:04;;;;;;;17.60;16.40;;;15.10;99.90;;;;;;5091069;28;20482;-74
2022/06/08 00:39:31;;;;;;;16.77;15.70;;;15.20;99.90;;;;;;5091120;28;20454;-73
2022/06/08 00:42:02;;;;;;;15.90;15.10;;;15.30;99.90;;;;;;5090812;28;20461;-73
2022/06/08 03:10:13;;;;;;;15.23;14.30;;;14.30;99.90;;;;;;5558456;22;20993;-73
2022/06/08 03:12:44;;;;;;;14.60;13.57;;;14.30;99.90;;;;;;4981806;28;20470;-73
2022/06/08 03:15:15;;;;;;;14.00;13.00;;;14.30;99.90;;;;;;4990366;28;20455;-73
2022/06/08 03:17:43;;;;;;;14.23;13.43;;;14.30;99.90;;;;;;4980028;28;20450;-73
2022/06/08 03:20:11;;;;;;;15.17;14.37;;;14.20;99.90;;;;;;4992028;28;21094;-73
2022/06/08 03:22:38;;;;;;;15.87;14.97;;;14.30;99.90;;;;;;4991981;28;20478;-74
2022/06/08 03:25:06;;;;;;;14.87;14.17;;;14.30;99.90;;;;;;4991745;28;20482;-72
2022/06/08 03:27:35;;;;;;;15.47;14.43;;;14.30;99.90;;;;;;4991833;28;20455;-72
2022/06/08 03:30:02;;;;;;;14.60;14.00;;;14.40;99.90;;;;;;4992089;28;20451;-72
2022/06/08 03:32:29;;;;;;;14.00;13.30;;;14.40;99.90;;;;;;4992018;28;20466;-72
2022/06/08 03:34:56;;;;;;;15.37;14.50;;;14.50;99.90;;;;;;4992096;28;20534;-73
2022/06/08 03:37:22;;;;;;;15.27;14.47;;;14.60;99.90;;;;;;4991889;28;21047;-73
2022/06/08 03:39:49;;;;;;;15.27;14.47;;;14.60;99.90;;;;;;4991540;28;20570;-72
2022/06/08 03:42:16;;;;;;;14.67;13.97;;;14.70;99.90;;;;;;4991828;28;20463;-73
2022/06/08 03:44:45;;;;;;;16.80;15.50;;;14.70;99.90;;;;;;4991899;28;20447;-73
2022/06/08 03:47:16;;;;;;;14.97;14.07;;;14.60;99.90;;;;;;4991892;28;20525;-73
2022/06/08 03:49:43;;;;;;;15.73;14.50;;;14.70;99.90;;;;;;4991909;28;20447;-73
2022/06/08 03:52:14;;;;;;;15.37;14.57;;;14.80;99.90;;;;;;4991540;28;20454;-72
2022/06/08 03:54:45;;;;;;;14.13;13.53;;;14.80;99.90;;;;;;4991571;28;20461;-72
2022/06/08 03:57:14;;;;;;;14.63;13.83;;;14.80;99.90;;;;;;4991712;28;20496;-72
2022/06/08 03:59:43;;;;;;;15.33;14.33;;;14.80;99.90;;;;;;4991559;28;20455;-73
2022/06/08 04:02:11;;;;;;;15.07;14.23;;;14.90;99.90;;;;;;4991323;28;20457;-72
2022/06/08 04:04:39;;;;;;;15.27;14.43;;;15.00;99.90;;;;;;4991322;28;20455;-72
2022/06/08 04:07:06;;;;;;;15.13;13.97;;;15.00;99.90;;;;;;4991394;28;20453;-72
2022/06/08 04:09:33;;;;;;;15.83;14.93;;;15.10;99.90;;;;;;4991059;28;20490;-72
2022/06/08 04:12:00;;;;;;;16.83;15.57;;;15.20;99.90;;;;;;4991291;28;20447;-73
2022/06/08 04:14:27;;;;;;;15.70;14.80;;;15.30;99.90;;;;;;4991322;28;20819;-72
2022/06/08 04:16:53;;;;;;;15.87;14.83;;;15.30;99.90;;;;;;4987002;28;20478;-72
2022/06/08 04:19:22;;;;;;;15.00;14.17;;;15.30;99.90;;;;;;4980300;28;20880;-72
2022/06/08 04:21:49;;;;;;;16.40;15.30;;;15.40;99.90;;;;;;4971571;28;20491;-72
2022/06/08 04:24:17;;;;;;;15.23;14.23;;;15.50;99.90;;;;;;4971379;28;20969;-72
2022/06/08 04:26:44;;;;;;;15.33;14.63;;;15.70;99.90;;;;;;4971692;28;20459;-72
2022/06/08 04:29:11;;;;;;;14.57;13.73;;;15.90;99.90;;;;;;4971649;28;20471;-72
2022/06/08 04:31:38;;;;;;;14.00;13.07;;;16.30;99.90;;;;;;4971512;28;20455;-71
2022/06/08 04:34:07;;;;;;;14.20;13.40;;;16.60;99.90;;;;;;4971315;28;20950;-72
2022/06/08 04:36:36;;;;;;;14.40;13.60;;;17.00;99.90;;;;;;4971655;28;20856;-73
2022/06/08 04:39:05;;;;;;;14.33;13.40;;;17.40;99.90;;;;;;4971694;28;20459;-73
2022/06/08 04:41:32;;;;;;;13.90;13.10;;;17.70;99.90;;;;;;4971771;28;20491;-72
2022/06/08 04:43:59;;;;;;;13.83;13.03;;;17.60;99.90;;;;;;4971789;28;20826;-73
2022/06/08 04:46:26;;;;;;;14.43;13.50;;;17.50;99.90;;;;;;4971515;28;20455;-73
2022/06/08 04:48:52;;;;;;;15.20;14.20;;;17.20;99.90;;;;;;4971245;28;21008;-73
2022/06/08 04:51:19;;;;;;;13.77;12.97;;;17.10;99.90;;;;;;4971557;28;20452;-73
2022/06/08 04:53:48;;;;;;;13.23;12.73;;;16.90;99.90;;;;;;4971985;28;20455;-74
2022/06/08 04:56:15;;;;;;;13.87;13.13;;;16.60;99.90;;;;;;4971679;28;20881;-74
2022/06/08 04:58:41;;;;;;;14.13;13.30;;;16.40;99.90;;;;;;4971375;28;20448;-74
2022/06/08 05:01:08;;;;;;;13.87;12.97;;;16.30;99.90;;;;;;4971090;28;20930;-74
2022/06/08 05:03:35;;;;;;;13.40;12.60;;;16.30;99.90;;;;;;4971441;28;20447;-75
2022/06/08 05:06:03;;;;;;;13.30;12.43;;;16.30;99.90;;;;;;4975299;28;20467;-74
2022/06/08 05:08:30;;;;;;;12.57;11.93;;;16.40;99.90;;;;;;4976622;28;20483;-75
2022/06/08 05:10:58;;;;;;;14.43;13.37;;;16.40;99.90;;;;;;4971179;28;20526;-75
2022/06/08 05:13:25;;;;;;;14.07;13.17;;;16.30;99.90;;;;;;4971097;28;20812;-73
2022/06/08 05:15:52;;;;;;;13.63;13.07;;;16.40;99.90;;;;;;4971151;28;21043;-75
2022/06/08 05:18:20;;;;;;;15.33;14.53;;;16.60;99.90;;;;;;4975626;28;20471;-76
2022/06/08 05:20:48;;;;;;;15.70;14.90;;;16.70;99.90;;;;;;4977452;28;20487;-75
2022/06/08 05:23:18;;;;;;;14.13;13.20;;;16.60;99.90;;;;;;4994433;28;20818;-76
2022/06/08 05:25:45;;;;;;;14.90;13.90;;;16.60;99.90;;;;;;4994287;28;20450;-75
2022/06/08 05:28:14;;;;;;;14.70;13.90;;;16.60;99.90;;;;;;4994718;28;20466;-75
2022/06/08 05:30:43;;;;;;;13.27;12.53;;;16.90;99.90;;;;;;4994366;28;20445;-75
2022/06/08 05:33:11;;;;;;;14.20;13.37;;;17.40;99.90;;;;;;4994298;28;20454;-76
2022/06/08 05:35:39;;;;;;;13.80;13.00;;;18.00;99.90;;;;;;4993983;28;20482;-76
2022/06/08 05:38:06;;;;;;;13.80;12.87;;;18.50;99.90;;;;;;4994015;28;20458;-75
2022/06/08 05:40:35;;;;;;;14.70;13.90;;;18.50;99.90;;;;;;4993849;28;20486;-76
2022/06/08 05:43:02;;;;;;;14.90;14.20;;;18.60;99.90;;;;;;4993755;28;20498;-77
2022/06/08 05:45:32;;;;;;;13.43;12.80;;;18.50;99.90;;;;;;4993837;28;20457;-77
2022/06/08 05:47:59;;;;;;;13.10;12.30;;;18.70;99.90;;;;;;4993914;28;20549;-78
2022/06/08 05:50:27;;;;;;;13.37;12.57;;;19.20;99.90;;;;;;4993783;28;20451;-77
2022/06/08 05:52:54;;;;;;;13.63;12.93;;;19.60;99.90;;;;;;4993453;28;20481;-77
2022/06/08 05:55:23;;;;;;;14.77;13.80;;;19.70;99.90;;;;;;4993490;28;20457;-78
2022/06/08 05:57:51;;;;;;;13.50;12.80;;;19.70;99.90;;;;;;4993646;28;20462;-78
2022/06/08 06:00:21;;;;;;;15.93;14.70;;;19.40;99.90;;;;;;4993457;28;20480;-78
2022/06/08 06:02:50;;;;;;;15.13;13.90;;;19.10;99.90;;;;;;4993473;28;20462;-78
2022/06/08 06:05:19;;;;;;;13.70;13.00;;;19.00;99.90;;;;;;4993600;28;20458;-78
2022/06/08 06:07:46;;;;;;;13.53;12.87;;;18.90;99.90;;;;;;4993941;28;20447;-78
2022/06/08 06:10:14;;;;;;;12.70;12.20;;;18.80;99.90;;;;;;4993218;28;20493;-78
2022/06/08 06:12:41;;;;;;;14.17;13.27;;;18.70;99.90;;;;;;4993273;28;20454;-78
2022/06/08 06:15:09;;;;;;;12.80;12.07;;;18.60;99.90;;;;;;4993140;28;20457;-78
2022/06/08 06:17:36;;;;;;;12.43;11.27;;;18.60;99.90;;;;;;4993360;28;20466;-78
2022/06/08 06:20:06;;;;;;;14.37;13.47;;;18.80;99.90;;;;;;4993168;28;20446;-79
2022/06/08 06:22:35;;;;;;;13.97;13.27;;;19.60;99.90;;;;;;4992988;28;20517;-78
2022/06/08 06:25:02;;;;;;;15.10;14.13;;;20.30;99.90;;;;;;4992928;28;20491;-80
2022/06/08 06:27:29;;;;;;;12.27;11.57;;;20.00;99.90;;;;;;4993110;28;20454;-78
2022/06/08 06:29:56;;;;;;;13.53;12.67;;;20.30;99.90;;;;;;4992769;28;20451;-78
2022/06/08 06:32:26;;;;;;;11.93;11.33;;;20.60;99.90;;;;;;4992760;28;20464;-79
2022/06/08 06:34:54;;;;;;;14.00;12.97;;;20.60;99.90;;;;;;4992581;28;20459;-79
2022/06/08 06:37:22;;;;;;;13.10;12.40;;;20.60;99.90;;;;;;4993039;28;20465;-80
2022/06/08 06:39:49;;;;;;;12.63;12.03;;;21.00;99.90;;;;;;4992401;28;20455;-78
2022/06/08 06:42:18;;;;;;;12.93;12.13;;;21.60;99.90;;;;;;4992545;28;21050;-79
2022/06/08 06:44:46;;;;;;;14.60;13.70;;;21.60;99.90;;;;;;4993336;28;20455;-78
2022/06/08 06:47:13;;;;;;;13.80;12.87;;;21.60;99.90;;;;;;4989277;28;20501;-77
2022/06/08 06:49:40;;;;;;;13.10;12.50;;;21.20;99.90;;;;;;4991617;28;20818;-77
2022/06/08 06:52:07;;;;;;;13.70;13.00;;;20.90;99.90;;;;;;4992318;28;20453;-76
2022/06/08 06:54:36;;;;;;;12.27;11.47;;;20.70;99.90;;;;;;4973090;28;20475;-78
2022/06/08 06:57:03;;;;;;;12.47;11.70;;;20.80;99.90;;;;;;4972733;28;20542;-78
2022/06/08 06:59:29;;;;;;;12.63;11.90;;;20.80;99.90;;;;;;4972937;28;20470;-77
2022/06/08 07:01:56;;;;;;;12.67;11.77;;;21.00;99.90;;;;;;4972521;28;20490;-77
2022/06/08 07:04:23;;;;;;;10.80;10.30;;;21.10;99.90;;;;;;4972581;28;20934;-77
2022/06/08 07:06:50;;;;;;;13.73;13.13;;;21.10;99.90;;;;;;4972460;28;20853;-77
2022/06/08 07:09:17;;;;;;;13.40;12.90;;;21.00;99.90;;;;;;4972405;28;20482;-78
2022/06/08 07:11:45;;;;;;;13.70;12.63;;;21.20;99.90;;;;;;4972415;28;20458;-78
2022/06/08 07:14:17;;;;;;;11.20;10.70;;;21.40;99.90;;;;;;4972611;28;20459;-78
2022/06/08 07:16:45;;;;;;;13.27;12.37;;;21.30;99.90;;;;;;4972837;28;20538;-79
2022/06/08 07:19:12;;;;;;;12.10;11.40;;;21.20;99.90;;;;;;4972554;28;20584;-78
2022/06/08 07:21:39;;;;;;;13.60;12.60;;;21.30;99.90;;;;;;4972174;28;20483;-78
2022/06/08 07:24:06;;;;;;;12.67;11.80;;;21.50;99.90;;;;;;4972161;28;20452;-78
2022/06/08 07:26:33;;;;;;;13.00;12.10;;;21.40;99.90;;;;;;4972326;28;20460;-79
2022/06/08 07:29:01;;;;;;;14.93;14.00;;;21.40;99.90;;;;;;4972566;28;20467;-78
2022/06/08 07:31:28;;;;;;;14.67;13.47;;;21.60;99.90;;;;;;4972566;28;20459;-78
2022/06/08 07:33:55;;;;;;;12.60;11.93;;;21.90;99.90;;;;;;4972352;28;20454;-77
2022/06/08 07:36:22;;;;;;;15.90;14.90;;;22.10;99.90;;;;;;4972407;28;20459;-78
2022/06/08 07:38:49;;;;;;;12.70;12.10;;;22.10;99.90;;;;;;4972111;28;20486;-78
2022/06/08 07:41:16;;;;;;;13.50;12.70;;;22.10;99.90;;;;;;4971806;28;20484;-78
2022/06/08 07:43:43;;;;;;;13.30;12.50;;;22.40;99.90;;;;;;4972082;28;20458;-77
2022/06/08 07:46:11;;;;;;;13.17;12.27;;;22.90;98.80;;;;;;4972139;28;20463;-78
2022/06/08 07:51:23;;;;;;;14.03;13.40;;;24.30;96.30;;;;;;4972087;28;21113;-78
2022/06/08 07:53:49;;;;;;;12.87;12.17;;;24.40;96.50;;;;;;4971896;28;20448;-79
2022/06/08 07:56:17;;;;;;;14.70;13.37;;;25.10;94.10;;;;;;4972208;28;20462;-78
2022/06/08 07:58:43;;;;;;;13.20;12.50;;;25.50;94.10;;;;;;4972203;28;20487;-79
2022/06/08 08:01:11;;;;;;;13.27;12.37;;;25.70;93.00;;;;;;4971935;28;20812;-79
2022/06/08 08:03:38;;;;;;;14.00;13.00;;;24.80;94.50;;;;;;4971756;28;20456;-78
2022/06/08 08:06:06;;;;;;;12.77;12.17;;;24.80;94.70;;;;;;4971875;28;20524;-79
2022/06/08 08:08:33;;;;;;;12.80;12.30;;;24.70;93.80;;;;;;4971419;28;20574;-79
2022/06/08 08:11:00;;;;;;;13.23;12.63;;;24.50;93.90;;;;;;4971883;28;20483;-79
2022/06/08 08:13:27;;;;;;;11.93;11.37;;;24.30;94.60;;;;;;4971945;28;20452;-79
2022/06/08 08:15:53;;;;;;;12.80;12.20;;;24.50;94.80;;;;;;4971793;28;20466;-79
2022/06/08 08:18:21;;;;;;;13.30;12.50;;;24.70;94.50;;;;;;4971574;28;20464;-79
2022/06/08 08:20:49;;;;;;;13.27;12.47;;;25.20;93.40;;;;;;4971731;28;20460;-79
2022/06/08 08:23:16;;;;;;;13.13;12.23;;;25.50;92.30;;;;;;4971860;28;21009;-80
2022/06/08 08:25:43;;;;;;;14.30;13.30;;;25.10;91.70;;;;;;4971824;28;20456;-79
2022/06/08 08:28:10;;;;;;;13.20;12.40;;;24.80;92.70;;;;;;4972222;28;20451;-80
2022/06/08 08:30:36;;;;;;;12.70;12.10;;;25.60;92.20;;;;;;4971802;28;20458;-78
2022/06/08 08:33:04;;;;;;;12.83;12.37;;;25.90;91.00;;;;;;4971496;28;20447;-78
2022/06/08 08:35:32;;;;;;;13.03;12.37;;;26.20;91.30;;;;;;4971812;28;20805;-79
2022/06/08 08:38:00;;;;;;;13.83;13.13;;;27.20;87.30;;;;;;4971861;28;20456;-80
2022/06/08 08:40:46;;;;;;;13.17;12.47;;;27.70;85.20;;;;;;4969624;28;20478;-80
2022/06/08 08:43:16;;;;;;;13.20;12.30;;;27.80;85.60;;;;;;4970625;28;20498;-79
2022/06/08 08:45:53;;;;;;;13.80;13.00;;;27.60;84.80;;;;;;4971254;28;20466;-79
2022/06/08 08:48:27;;;;;;;13.50;12.70;;;27.30;85.10;;;;;;4969171;28;20459;-79
2022/06/08 08:51:04;;;;;;;13.00;12.30;;;26.70;87.20;;;;;;4970960;28;20455;-79
2022/06/08 08:53:43;;;;;;;12.63;12.13;;;26.70;86.60;;;;;;4972625;28;20447;-79
2022/06/08 08:56:14;;;;;;;13.30;12.10;;;26.60;87.20;;;;;;4974755;28;20820;-79
2022/06/08 08:58:44;;;;;;;12.60;11.80;;;25.70;89.10;;;;;;4974679;28;20455;-78
2022/06/08 09:01:16;;;;;;;12.70;11.83;;;25.30;89.80;;;;;;4974888;28;20562;-79
2022/06/08 09:03:45;;;;;;;11.30;10.80;;;25.20;90.30;;;;;;4974694;28;20455;-79
2022/06/08 09:06:17;;;;;;;13.27;12.67;;;25.60;89.80;;;;;;4974548;28;20455;-78
2022/06/08 09:08:46;;;;;;;12.97;12.40;;;25.90;88.20;;;;;;4974765;28;20471;-80
2022/06/08 09:11:18;;;;;;;13.13;12.40;;;26.10;87.10;;;;;;4974853;28;20510;-79
2022/06/08 09:13:49;;;;;;;13.23;12.43;;;26.10;86.60;;;;;;4974634;28;20460;-79
2022/06/08 09:16:37;;;;;;;13.37;12.67;;;26.40;86.90;;;;;;4974876;28;20451;-78
2022/06/08 09:19:26;;;;;;;12.67;11.87;;;25.90;87.30;;;;;;4974245;28;20866;-78
2022/06/08 09:21:55;;;;;;;12.30;11.80;;;25.90;88.10;;;;;;4974043;28;20483;-79
2022/06/08 09:24:28;;;;;;;13.17;12.33;;;26.40;85.60;;;;;;4973938;28;20474;-78
2022/06/08 09:26:56;;;;;;;13.43;12.50;;;26.30;85.40;;;;;;4974010;28;20462;-78
2022/06/08 09:29:29;;;;;;;13.60;12.70;;;26.00;86.30;;;;;;4974006;28;20459;-79
2022/06/08 09:31:56;;;;;;;11.97;11.57;;;26.40;86.30;;;;;;4974072;28;20498;-79
2022/06/08 09:34:25;;;;;;;12.90;12.37;;;25.90;84.40;;;;;;4974048;28;20466;-78
2022/06/08 09:37:10;;;;;;;13.00;12.50;;;25.90;87.20;;;;;;4974058;28;20451;-79
2022/06/08 09:39:37;;;;;;;12.87;12.27;;;26.10;84.60;;;;;;4973822;28;20470;-78
2022/06/08 09:42:17;;;;;;;12.80;12.23;;;26.40;83.60;;;;;;4973798;28;20486;-78
2022/06/08 09:44:53;;;;;;;12.77;12.17;;;25.90;84.90;;;;;;4974147;28;20455;-79
2022/06/08 09:53:13;;;;;;;13.13;12.53;;;28.40;76.90;;;;;;4973682;28;20881;-80
2022/06/08 09:55:58;;;;;;;12.97;12.27;;;28.60;73.60;;;;;;4973515;28;20458;-80
2022/06/08 09:58:43;;;;;;;13.73;12.93;;;27.90;78.10;;;;;;4973569;28;20455;-80
2022/06/08 10:01:16;;;;;;;13.50;12.67;;;27.70;75.10;;;;;;4973963;28;20462;-80
2022/06/08 10:04:05;;;;;;;12.87;12.27;;;26.50;77.90;;;;;;4973755;28;20483;-79
2022/06/08 10:06:46;;;;;;;13.17;12.57;;;25.90;79.80;;;;;;4960066;28;20463;-81
2022/06/08 10:09:25;;;;;;;13.10;12.60;;;27.20;78.40;;;;;;4973090;28;20467;-80
2022/06/08 10:12:02;;;;;;;13.27;12.73;;;28.10;71.50;;;;;;4973670;28;20443;-81
2022/06/08 10:14:38;;;;;;;12.87;11.97;;;28.70;69.80;;;;;;4973520;28;20455;-80
2022/06/08 10:17:13;;;;;;;13.20;12.57;;;27.30;73.30;;;;;;4973232;28;20502;-80
2022/06/08 10:19:52;;;;;;;13.50;12.70;;;27.50;74.20;;;;;;4973116;28;20458;-81
2022/06/08 10:22:21;;;;;;;12.70;12.00;;;26.40;73.80;;;;;;4973148;28;21197;-80
2022/06/08 10:24:55;;;;;;;12.53;12.03;;;26.10;74.60;;;;;;4973256;28;20451;-79
2022/06/08 10:27:27;;;;;;;12.90;12.20;;;25.60;73.80;;;;;;4972688;28;21000;-80
2022/06/08 10:30:06;;;;;;;12.20;11.43;;;25.50;76.40;;;;;;4972909;28;20447;-80
2022/06/08 10:32:38;;;;;;;12.53;11.83;;;25.80;77.90;;;;;;4973236;28;20451;-80
2022/06/08 10:35:21;;;;;;;12.30;11.80;;;25.70;76.10;;;;;;4973070;28;20456;-80
2022/06/08 10:37:48;;;;;;;13.87;12.73;;;24.80;76.60;;;;;;4973057;28;20462;-80
2022/06/08 10:40:20;;;;;;;12.63;11.97;;;24.80;78.20;;;;;;4973117;28;20463;-79
2022/06/08 10:42:49;;;;;;;12.87;12.27;;;25.40;77.60;;;;;;4972812;28;20578;-79
2022/06/08 10:45:36;;;;;;;13.17;12.53;;;26.10;75.40;;;;;;4973635;28;20476;-80
2022/06/08 10:48:28;;;;;;;12.90;12.30;;;27.30;71.00;;;;;;4972998;28;20452;-81
2022/06/08 10:51:23;;;;;;;13.67;13.07;;;28.40;68.60;;;;;;4972980;28;20452;-83
2022/06/08 10:56:51;;;;;;;13.93;13.20;;;30.70;58.50;;;;;;4972835;28;20431;-83
2022/06/08 10:59:20;;;;;;;13.10;12.50;;;31.90;55.10;;;;;;4972963;28;20463;-81
2022/06/08 11:02:31;;;;;;;13.13;12.70;;;32.60;52.30;;;;;;4972995;28;20456;-82
2022/06/08 11:05:16;;;;;;;12.90;12.40;;;31.40;52.80;;;;;;4973765;28;20549;-82
2022/06/08 11:08:17;;;;;;;13.83;13.10;;;31.10;53.10;;;;;;4973106;28;20463;-82
2022/06/08 11:11:01;;;;;;;13.27;12.87;;;30.40;52.80;;;;;;4973246;28;20531;-83
2022/06/08 11:13:36;;;;;;;14.13;13.53;;;30.60;51.70;;;;;;4973230;28;20447;-85
2022/06/08 11:16:11;;;;;;;14.73;13.87;;;31.40;51.10;;;;;;4972764;28;20451;-83
2022/06/08 11:18:42;;;;;;;13.63;13.07;;;31.70;50.10;;;;;;4972728;28;20607;-83
2022/06/08 11:21:37;;;;;;;14.13;13.53;;;32.40;48.50;;;;;;4973141;28;20455;-83
2022/06/08 11:24:19;;;;;;;13.07;12.57;;;30.40;46.60;;;;;;4972792;28;20502;-82
2022/06/08 11:26:54;;;;;;;12.67;12.17;;;31.00;49.90;;;;;;4972708;28;20799;-83
2022/06/08 11:29:43;;;;;;;13.37;12.57;;;30.30;49.50;;;;;;4971675;28;20459;-84
2022/06/08 11:32:25;;;;;;;12.60;11.80;;;30.10;49.90;;;;;;4969328;28;20447;-82
2022/06/08 11:35:24;;;;;;;13.70;13.20;;;30.60;50.80;;;;;;4969419;28;20451;-84
2022/06/08 11:38:02;;;;;;;14.27;13.47;;;31.60;49.40;;;;;;4969052;28;20497;-83
2022/06/08 11:40:33;;;;;;;13.30;12.80;;;32.30;48.70;;;;;;4971806;28;20447;-81
2022/06/08 11:43:26;;;;;;;13.97;13.37;;;30.70;48.40;;;;;;4972249;28;20495;-81
2022/06/08 11:45:58;;;;;;;13.80;13.20;;;29.60;51.10;;;;;;4972094;28;20462;-81
2022/06/08 11:48:30;;;;;;;14.13;13.40;;;29.60;51.40;;;;;;4972483;28;20937;-83
2022/06/08 11:50:58;;;;;;;13.40;12.90;;;30.20;52.70;;;;;;4972361;28;20546;-81
2022/06/08 11:53:33;;;;;;;13.30;12.50;;;29.30;51.10;;;;;;4972457;28;20922;-81
2022/06/08 11:56:08;;;;;;;12.90;12.40;;;29.50;51.50;;;;;;4972997;28;20451;-81
2022/06/08 11:58:41;;;;;;;13.43;12.90;;;29.70;50.10;;;;;;4972295;28;20451;-81
2022/06/08 12:01:17;;;;;;;13.73;13.00;;;30.00;50.60;;;;;;4972400;28;20463;-81
2022/06/08 12:03:51;;;;;;;13.77;13.20;;;30.90;47.90;;;;;;4972750;28;20487;-81
2022/06/08 12:06:22;;;;;;;13.83;13.03;;;30.50;47.10;;;;;;4972800;28;20463;-83
2022/06/08 12:08:53;;;;;;;13.93;13.33;;;30.30;48.80;;;;;;4972557;28;20985;-81
2022/06/08 12:11:23;;;;;;;14.67;13.77;;;30.50;46.40;;;;;;4971591;28;21027;-81
2022/06/08 12:14:00;;;;;;;14.47;13.30;;;29.50;47.60;;;;;;4972119;28;20458;-81
2022/06/08 12:16:31;;;;;;;13.07;12.57;;;29.60;49.00;;;;;;4971997;28;20455;-80
2022/06/08 12:19:06;;;;;;;13.50;12.90;;;30.00;46.30;;;;;;4972014;28;20482;-80
2022/06/08 12:21:37;;;;;;;12.50;11.90;;;29.50;46.90;;;;;;4971879;28;20479;-80
2022/06/08 12:24:29;;;;;;;12.70;12.30;;;28.10;48.90;;;;;;4970062;28;20479;-79
2022/06/08 12:27:19;;;;;;;12.90;12.40;;;27.10;50.60;;;;;;4968627;28;20455;-79
2022/06/08 12:30:03;;;;;;;12.83;12.23;;;26.60;52.40;;;;;;4970161;28;20451;-80
2022/06/08 12:32:49;;;;;;;13.37;12.87;;;27.30;51.70;;;;;;4968252;28;20455;-79
2022/06/08 12:35:26;;;;;;;13.20;12.70;;;28.00;51.70;;;;;;4969292;28;20450;-80
2022/06/08 12:38:16;;;;;;;13.23;12.70;;;29.00;50.00;;;;;;4951195;29;20518;-82
2022/06/08 12:41:02;;;;;;;12.33;11.80;;;28.90;49.50;;;;;;4951436;29;20779;-81
2022/06/08 12:43:38;;;;;;;13.47;12.80;;;29.20;50.10;;;;;;4950340;29;20542;-80
2022/06/08 12:46:27;;;;;;;13.00;12.30;;;29.40;48.70;;;;;;4950840;29;20867;-80
2022/06/08 12:49:04;;;;;;;12.83;12.43;;;28.50;49.50;;;;;;4950969;29;20483;-79
2022/06/08 12:51:43;;;;;;;12.10;11.70;;;28.30;50.40;;;;;;4950909;29;20479;-78
2022/06/08 12:54:17;;;;;;;12.90;11.70;;;28.50;50.30;;;;;;4951443;29;20487;-79
2022/06/08 12:56:46;;;;;;;13.03;12.60;;;28.60;50.20;;;;;;4951149;29;20464;-78
2022/06/08 12:59:14;;;;;;;13.70;13.00;;;28.50;50.40;;;;;;4950963;29;20456;-78
2022/06/08 13:01:44;;;;;;;13.57;12.97;;;28.80;49.90;;;;;;4950698;29;20456;-80
2022/06/08 13:04:14;;;;;;;12.90;12.50;;;28.70;49.10;;;;;;4950528;29;20480;-79
2022/06/08 13:06:41;;;;;;;13.50;12.90;;;28.30;49.30;;;;;;4950745;29;20499;-79
2022/06/08 13:09:12;;;;;;;13.00;12.50;;;27.90;50.20;;;;;;4950465;29;20468;-79
2022/06/08 13:11:39;;;;;;;13.50;12.90;;;28.00;50.20;;;;;;4951043;29;20456;-80
2022/06/08 13:14:06;;;;;;;12.47;11.90;;;28.30;50.50;;;;;;4965387;28;20443;-79
2022/06/08 13:16:33;;;;;;;13.83;12.90;;;27.80;50.50;;;;;;4970939;28;20462;-79
2022/06/08 13:19:03;;;;;;;13.17;12.77;;;27.60;50.50;;;;;;4971215;28;20466;-79
2022/06/08 13:21:37;;;;;;;12.60;12.10;;;27.50;50.80;;;;;;4971203;28;20527;-80
2022/06/08 13:24:06;;;;;;;12.70;12.10;;;27.60;50.80;;;;;;4970907;28;20498;-79
2022/06/08 13:26:34;;;;;;;13.47;12.73;;;28.20;50.90;;;;;;4970898;28;20451;-79
2022/06/08 13:29:02;;;;;;;13.20;12.70;;;28.70;50.30;;;;;;4971267;28;20452;-79
2022/06/08 13:31:40;;;;;;;13.50;13.00;;;29.20;49.50;;;;;;4971768;28;20460;-77
2022/06/08 13:34:07;;;;;;;13.67;13.20;;;29.50;49.60;;;;;;4970866;28;20510;-78
2022/06/08 13:36:42;;;;;;;13.90;13.30;;;29.40;49.40;;;;;;4970909;28;20466;-79
2022/06/08 13:39:20;;;;;;;12.73;12.30;;;29.10;50.00;;;;;;4971068;28;20452;-79
2022/06/08 13:41:47;;;;;;;13.50;13.03;;;28.90;50.30;;;;;;4974640;28;20479;-78
2022/06/08 13:44:16;;;;;;;13.40;12.90;;;29.70;48.10;;;;;;4974518;28;20519;-79
2022/06/08 13:46:45;;;;;;;13.17;12.77;;;30.70;48.00;;;;;;4974500;28;20452;-78
2022/06/08 13:49:14;;;;;;;13.17;12.67;;;30.80;47.70;;;;;;4974438;28;20872;-77
2022/06/08 13:51:45;;;;;;;13.50;13.00;;;30.50;47.20;;;;;;4974139;28;20505;-77
2022/06/08 13:54:22;;;;;;;13.40;12.90;;;30.40;48.50;;;;;;4974327;28;20455;-78
2022/06/08 13:56:50;;;;;;;12.90;12.50;;;30.50;48.60;;;;;;4974070;28;20559;-78
2022/06/08 13:59:18;;;;;;;12.90;12.20;;;30.00;48.20;;;;;;4974280;28;20483;-78
2022/06/08 14:01:47;;;;;;;12.27;11.87;;;29.80;48.70;;;;;;4972742;28;20835;-78
2022/06/08 14:04:17;;;;;;;12.80;12.30;;;29.40;48.80;;;;;;4973948;28;21052;-77
2022/06/08 14:14:58;;;;;;;12.97;12.03;;;28.90;50.20;;;;;;4994082;28;20478;-79
2022/06/08 14:17:26;;;;;;;12.87;12.40;;;28.50;51.20;;;;;;4992197;28;20455;-78
2022/06/08 14:19:57;;;;;;;13.37;12.50;;;28.30;51.70;;;;;;4994080;28;21074;-78
2022/06/08 14:22:28;;;;;;;12.80;12.10;;;28.10;51.30;;;;;;4993331;28;20828;-79
2022/06/08 14:24:59;;;;;;;13.10;12.60;;;28.10;52.00;;;;;;4993600;28;20491;-78
2022/06/08 14:27:27;;;;;;;12.67;12.10;;;27.80;52.60;;;;;;4993166;28;20461;-78
2022/06/08 14:29:54;;;;;;;12.90;12.37;;;27.80;52.30;;;;;;4993058;28;20518;-78
2022/06/08 14:32:25;;;;;;;11.73;11.27;;;27.40;52.50;;;;;;4992793;28;20451;-79
2022/06/08 14:34:52;;;;;;;12.50;11.93;;;27.40;52.90;;;;;;4993017;28;20497;-78
2022/06/08 14:37:22;;;;;;;12.83;12.33;;;27.20;54.10;;;;;;4993380;28;20455;-79
2022/06/08 14:39:50;;;;;;;13.50;12.90;;;26.90;54.40;;;;;;4991140;28;20451;-78
2022/06/08 14:42:17;;;;;;;13.00;12.50;;;26.50;55.10;;;;;;4992203;28;20458;-78
2022/06/08 14:44:45;;;;;;;12.50;12.00;;;26.20;56.30;;;;;;4992633;28;20498;-78
2022/06/08 14:47:17;;;;;;;13.53;12.83;;;26.00;56.30;;;;;;4992930;28;20462;-78
2022/06/08 14:49:43;;;;;;;12.07;11.43;;;25.60;57.40;;;;;;4993124;28;20462;-78
2022/06/08 14:52:15;;;;;;;15.90;15.30;;;25.20;59.10;;;;;;4992901;28;20450;-78
2022/06/08 14:54:42;;;;;;;17.17;16.27;;;24.20;67.70;;;;;;4993112;28;20612;-79
2022/06/08 14:57:20;;;;;;;17.67;16.83;;;23.00;80.00;;;;;;4992451;28;20455;-75
2022/06/08 14:59:48;;;;;;;18.57;17.63;;;22.00;94.40;;;;;;4991245;28;20504;-75
2022/06/08 15:02:20;;;;;;;21.47;20.37;;;21.10;99.90;;;;;;4993050;28;20451;-74
2022/06/08 15:04:47;;;;;;;21.23;20.33;;;20.30;99.90;;;;;;4992747;28;20856;-75
2022/06/08 15:07:14;;;;;;;23.60;22.53;;;19.60;99.90;;;;;;4992571;28;20461;-75
2022/06/08 15:09:41;;;;;;;23.23;21.90;;;19.30;99.90;;;;;;4992061;28;20489;-75
2022/06/08 15:12:14;;;;;;;22.80;21.80;;;19.10;99.90;;;;;;4992511;28;20462;-75
2022/06/08 15:14:46;;;;;;;25.23;23.93;;;18.90;99.90;;;;;;4992323;28;20451;-75
2022/06/08 15:17:16;;;;;;;24.07;22.73;;;18.80;99.90;;;;;;4992461;28;20525;-78
2022/06/08 15:19:46;;;;;;;25.10;23.77;;;18.70;99.90;;;;;;4993116;28;20458;-76
2022/06/08 15:22:14;;;;;;;25.00;23.83;;;18.80;99.90;;;;;;4992826;28;20463;-77
2022/06/08 15:24:41;;;;;;;23.80;22.60;;;18.90;99.90;;;;;;4992148;28;20479;-77
2022/06/08 15:27:21;;;;;;;24.30;23.13;;;18.90;99.90;;;;;;4992689;28;20455;-76
2022/06/08 15:29:48;;;;;;;23.57;22.47;;;18.90;99.90;;;;;;4992448;28;20442;-77
2022/06/08 15:32:17;;;;;;;24.60;23.30;;;19.00;99.90;;;;;;4992231;28;20457;-77